Time;durP1;ratioP1;P1;durP2;ratioP2;P2;SDS_P1;SDS_P2;PMS_P1;PMS_P2;Temp;Humidity;BMP_temperature;BMP_pressure;BME280_temperature;BME280_humidity;BME280_pressure;Samples;Min_cycle;Max_cycle;Signal;HPM_P1;HPM_P2
2024/01/27 00:01:33;;;;;;;;;7.00;6.00;;;;;8.65;52.87;103046.84;5058939;28;45481;-79
2024/01/27 00:03:59;;;;;;;;;6.00;6.00;;;;;9.36;52.90;103156.47;5062003;28;45402;-79
2024/01/27 00:06:24;;;;;;;;;8.33;7.00;;;;;9.53;52.70;103186.63;5071384;28;45446;-78
2024/01/27 00:08:50;;;;;;;;;8.33;6.33;;;;;9.47;52.58;103179.84;5072880;28;44983;-77
2024/01/27 00:11:15;;;;;;;;;10.33;6.00;;;;;9.45;52.79;103187.91;5067917;28;45985;-78
2024/01/27 00:13:40;;;;;;;;;6.00;6.00;;;;;9.51;52.69;103196.47;5077283;28;45536;-79
2024/01/27 00:16:06;;;;;;;;;9.67;8.00;;;;;8.98;52.79;103089.41;5082492;28;45488;-77
2024/01/27 00:18:31;;;;;;;;;5.00;4.00;;;;;8.79;52.62;103054.97;5072446;28;45346;-78
2024/01/27 00:20:57;;;;;;;;;7.33;7.33;;;;;9.44;52.48;103162.28;5073452;28;46109;-78
2024/01/27 00:23:22;;;;;;;;;10.33;7.67;;;;;9.60;52.80;103188.03;5065028;28;45388;-79
2024/01/27 00:25:47;;;;;;;;;6.33;6.33;;;;;9.42;52.82;103169.47;5064257;28;45173;-78
2024/01/27 00:28:13;;;;;;;;;6.00;6.00;;;;;9.41;52.54;103162.44;5072461;28;45170;-78
2024/01/27 00:30:38;;;;;;;;;9.67;8.33;;;;;9.23;52.48;103147.44;5074368;28;45762;-78
2024/01/27 00:33:04;;;;;;;;;8.00;6.33;;;;;9.43;53.26;103202.19;5084040;28;45517;-78
2024/01/27 00:35:29;;;;;;;;;6.33;4.33;;;;;9.11;53.24;103153.34;5094945;28;44948;-77
2024/01/27 00:37:54;;;;;;;;;4.67;3.67;;;;;9.43;52.86;103205.69;5070730;28;45394;-78
2024/01/27 00:40:20;;;;;;;;;6.00;6.00;;;;;9.44;53.08;103196.81;5093848;28;45106;-80
2024/01/27 00:42:45;;;;;;;;;7.00;6.00;;;;;9.47;52.87;103189.63;5092258;28;45107;-77
2024/01/27 00:45:10;;;;;;;;;3.00;3.00;;;;;9.51;53.02;103191.19;5087944;28;45599;-79
2024/01/27 00:47:36;;;;;;;;;4.33;4.00;;;;;9.53;52.86;103191.94;5092973;28;44996;-78
2024/01/27 00:50:01;;;;;;;;;6.00;6.00;;;;;9.52;53.37;103192.91;5068332;28;45759;-79
2024/01/27 00:52:28;;;;;;;;;8.67;6.67;;;;;9.35;53.62;103167.19;5073242;28;45775;-78
2024/01/27 00:54:53;;;;;;;;;8.33;7.00;;;;;9.48;53.78;103188.69;5082712;28;45799;-80
2024/01/27 00:57:18;;;;;;;;;12.33;9.00;;;;;9.26;53.93;103146.41;5058483;28;45580;-79
2024/01/27 00:59:44;;;;;;;;;18.00;13.33;;;;;9.30;54.13;103150.63;5082069;28;48776;-80
2024/01/27 01:02:09;;;;;;;;;15.67;15.67;;;;;9.52;54.02;103196.41;5084426;28;45311;-79
2024/01/27 01:04:34;;;;;;;;;20.67;13.33;;;;;9.43;54.12;103173.84;5085488;28;45359;-80
2024/01/27 01:07:00;;;;;;;;;18.00;14.00;;;;;9.41;54.11;103166.88;5084665;28;45293;-79
2024/01/27 01:09:25;;;;;;;;;15.67;13.67;;;;;9.50;54.55;103184.16;5062753;28;45905;-79
2024/01/27 01:11:51;;;;;;;;;21.00;15.00;;;;;8.79;54.55;103070.88;5045808;28;44969;-80
2024/01/27 01:14:16;;;;;;;;;20.00;16.33;;;;;9.39;54.66;103166.09;5044638;28;45376;-78
2024/01/27 01:16:41;;;;;;;;;25.00;22.00;;;;;9.45;55.09;103171.97;5023136;28;45241;-77
2024/01/27 01:19:07;;;;;;;;;22.33;20.00;;;;;9.42;55.71;103171.28;5032170;28;45456;-78
2024/01/27 01:21:32;;;;;;;;;26.33;22.33;;;;;9.39;55.56;103169.59;5050870;28;44958;-79
2024/01/27 01:23:58;;;;;;;;;28.67;24.33;;;;;9.10;55.25;103123.28;5040513;28;45276;-79
2024/01/27 01:26:24;;;;;;;;;29.67;28.33;;;;;9.04;55.50;103109.47;5046234;28;45370;-80
2024/01/27 01:28:50;;;;;;;;;29.33;27.33;;;;;9.35;55.55;103160.06;5039329;28;45492;-78
2024/01/27 01:31:15;;;;;;;;;25.67;24.33;;;;;9.35;55.33;103161.88;5033105;28;45348;-77
2024/01/27 01:33:40;;;;;;;;;27.00;22.33;;;;;9.34;55.41;103157.50;5034692;28;45677;-80
2024/01/27 01:36:06;;;;;;;;;32.33;28.67;;;;;9.25;55.79;103153.53;5034222;28;45361;-79
2024/01/27 01:38:32;;;;;;;;;26.67;25.67;;;;;9.12;55.51;103129.38;5033192;28;45678;-77
2024/01/27 01:40:58;;;;;;;;;26.67;25.67;;;;;9.29;55.65;103164.84;5032612;28;45476;-79
2024/01/27 01:43:23;;;;;;;;;32.33;27.00;;;;;9.27;56.08;103162.25;5037068;28;45594;-78
2024/01/27 01:45:53;;;;;;;;;33.67;29.33;;;;;9.25;55.98;103161.50;5037309;28;45414;-78
2024/01/27 01:48:19;;;;;;;;;28.00;28.00;;;;;8.96;56.02;103114.28;5038846;28;45260;-78
2024/01/27 01:50:45;;;;;;;;;35.00;27.67;;;;;9.11;56.15;103143.59;5041708;28;45276;-78
2024/01/27 01:53:12;;;;;;;;;32.00;28.67;;;;;9.06;56.00;103136.78;5044672;28;45369;-79
2024/01/27 01:55:37;;;;;;;;;33.67;25.67;;;;;9.12;56.24;103147.94;5051228;28;45243;-79
2024/01/27 01:58:03;;;;;;;;;28.00;28.00;;;;;9.15;56.23;103150.44;5051119;28;45469;-78
2024/01/27 02:00:28;;;;;;;;;29.67;26.67;;;;;8.97;56.42;103127.47;5048194;28;45528;-80
2024/01/27 02:02:54;;;;;;;;;24.33;23.00;;;;;9.05;56.25;103145.69;5050654;28;45105;-79
2024/01/27 02:05:19;;;;;;;;;30.67;26.67;;;;;8.89;56.42;103129.66;5047836;28;45786;-79
2024/01/27 02:07:45;;;;;;;;;23.00;22.00;;;;;8.82;56.35;103123.78;5045904;28;46237;-78
2024/01/27 02:10:18;;;;;;;;;30.00;25.33;;;;;9.11;56.21;103182.53;5050323;28;45383;-78
2024/01/27 02:12:44;;;;;;;;;29.33;28.33;;;;;9.10;56.57;103186.13;5046434;28;45333;-79
2024/01/27 02:15:13;;;;;;;;;27.67;25.00;;;;;9.09;56.63;103173.78;5037293;28;45391;-79
2024/01/27 02:17:39;;;;;;;;;24.67;21.67;;;;;8.99;56.36;103153.94;5057283;28;45641;-77
2024/01/27 02:20:06;;;;;;;;;30.00;29.67;;;;;9.04;56.71;103157.25;5057266;28;45563;-76
2024/01/27 02:22:35;;;;;;;;;30.33;26.67;;;;;8.96;56.89;103154.94;5060063;28;45383;-79
2024/01/27 02:25:04;;;;;;;;;23.33;22.00;;;;;9.02;56.73;103167.94;5059434;28;45422;-77
2024/01/27 02:27:29;;;;;;;;;28.33;27.00;;;;;8.45;56.91;103063.72;5062827;28;46587;-78
2024/01/27 02:29:55;;;;;;;;;29.00;27.33;;;;;8.90;56.98;103147.28;5059934;28;45278;-79
2024/01/27 02:32:20;;;;;;;;;31.33;27.67;;;;;8.96;56.92;103157.59;5069986;28;44985;-76
2024/01/27 02:34:45;;;;;;;;;36.33;30.33;;;;;8.78;57.27;103121.34;5065677;28;45349;-76
2024/01/27 02:37:12;;;;;;;;;28.67;26.33;;;;;8.94;56.96;103148.00;5065532;28;45518;-79
2024/01/27 02:39:37;;;;;;;;;27.33;24.33;;;;;8.83;56.85;103136.13;5054798;28;45783;-74
2024/01/27 02:42:03;;;;;;;;;32.00;30.00;;;;;8.91;57.28;103148.16;5056419;28;45460;-79
2024/01/27 02:44:28;;;;;;;;;33.67;30.00;;;;;8.75;57.26;103119.72;5062501;28;44826;-76
2024/01/27 02:46:54;;;;;;;;;28.67;23.67;;;;;8.79;57.49;103129.22;5063462;28;45366;-77
2024/01/27 02:49:19;;;;;;;;;30.33;30.00;;;;;8.87;57.35;103147.44;5057435;28;45371;-78
2024/01/27 02:51:44;;;;;;;;;31.67;29.33;;;;;8.84;57.38;103148.44;5058762;28;45529;-79
2024/01/27 02:54:10;;;;;;;;;33.00;30.67;;;;;8.59;57.50;103110.75;5059918;28;45601;-80
2024/01/27 02:56:35;;;;;;;;;41.67;32.33;;;;;8.41;57.78;103080.72;5038846;28;46995;-77
2024/01/27 02:59:01;;;;;;;;;36.67;33.00;;;;;8.69;57.77;103133.28;5056268;28;45597;-78
2024/01/27 03:01:26;;;;;;;;;32.33;29.33;;;;;8.53;57.57;103113.72;5038364;28;45391;-79
2024/01/27 03:03:52;;;;;;;;;35.33;31.00;;;;;8.45;57.60;103105.28;5064010;28;45595;-80
2024/01/27 03:06:17;;;;;;;;;32.67;30.67;;;;;8.50;57.81;103105.91;5065123;28;45436;-79
2024/01/27 03:08:42;;;;;;;;;38.67;31.67;;;;;8.69;57.59;103151.84;5056480;28;45585;-78
2024/01/27 03:11:08;;;;;;;;;34.33;29.00;;;;;8.61;57.73;103138.09;5062769;28;45389;-78
2024/01/27 03:13:33;;;;;;;;;40.67;31.00;;;;;8.66;57.56;103141.38;5060627;28;45278;-78
2024/01/27 03:15:58;;;;;;;;;31.67;29.00;;;;;8.38;57.77;103086.13;5060038;28;45948;-80
2024/01/27 03:18:25;;;;;;;;;34.33;31.00;;;;;8.64;57.85;103140.59;5057323;28;45291;-79
2024/01/27 03:20:50;;;;;;;;;41.33;32.00;;;;;8.34;57.79;103096.97;5062843;28;45359;-78
2024/01/27 03:23:15;;;;;;;;;39.67;31.67;;;;;8.53;58.15;103129.63;5056191;28;45529;-79
2024/01/27 03:25:41;;;;;;;;;35.00;31.00;;;;;8.45;58.22;103107.94;5066776;28;45199;-77
2024/01/27 03:28:06;;;;;;;;;38.00;32.00;;;;;8.51;58.01;103120.88;5061334;28;45349;-76
2024/01/27 03:30:31;;;;;;;;;34.67;32.00;;;;;8.19;58.12;103067.53;5063053;28;45451;-78
2024/01/27 03:32:57;;;;;;;;;23.00;22.00;;;;;8.46;58.09;103114.94;5037148;28;45674;-78
2024/01/27 03:35:22;;;;;;;;;36.33;33.67;;;;;8.39;58.27;103106.41;5055258;28;46016;-78
2024/01/27 03:37:49;;;;;;;;;36.67;30.33;;;;;8.51;58.22;103135.00;5054746;28;45584;-77
2024/01/27 03:40:14;;;;;;;;;39.33;34.33;;;;;8.23;58.19;103103.59;5036484;28;45382;-75
2024/01/27 03:42:40;;;;;;;;;43.33;35.33;;;;;8.42;58.49;103139.88;5056441;28;45667;-79
2024/01/27 03:45:06;;;;;;;;;37.00;32.33;;;;;8.40;58.26;103131.97;5059352;28;45590;-80
2024/01/27 03:47:31;;;;;;;;;39.67;34.33;;;;;8.41;58.47;103123.13;5057483;28;45293;-78
2024/01/27 03:49:56;;;;;;;;;39.67;33.67;;;;;8.36;58.54;103113.63;5040956;28;45593;-78
2024/01/27 03:52:22;;;;;;;;;41.33;34.00;;;;;8.41;58.28;103128.44;5056861;28;45564;-79
2024/01/27 03:54:47;;;;;;;;;35.00;31.67;;;;;8.41;58.48;103123.13;5056934;28;45260;-76
2024/01/27 03:57:12;;;;;;;;;31.67;29.00;;;;;8.22;58.47;103091.28;5038078;28;45492;-79
2024/01/27 03:59:41;;;;;;;;;37.67;32.67;;;;;8.38;58.72;103122.38;5056559;28;45430;-78
2024/01/27 04:02:06;;;;;;;;;33.67;31.00;;;;;8.16;58.47;103091.53;5058421;28;45327;-77
2024/01/27 04:04:32;;;;;;;;;32.00;29.67;;;;;8.35;58.16;103123.38;5058524;28;47123;-78
2024/01/27 04:07:01;;;;;;;;;39.00;32.33;;;;;8.13;58.75;103086.41;5055567;28;45444;-79
2024/01/27 04:09:27;;;;;;;;;27.00;26.33;;;;;8.12;58.40;103081.16;5055327;28;45434;-79
2024/01/27 04:11:52;;;;;;;;;33.33;32.00;;;;;8.06;58.38;103074.38;5058253;28;45317;-79
2024/01/27 04:14:18;;;;;;;;;27.67;23.33;;;;;8.31;58.43;103118.28;5064684;28;46335;-79
2024/01/27 04:16:43;;;;;;;;;35.67;32.33;;;;;8.28;58.59;103110.47;5079128;28;45163;-75
2024/01/27 04:19:08;;;;;;;;;33.67;28.33;;;;;8.28;58.58;103111.31;5062249;28;45529;-77
2024/01/27 04:21:34;;;;;;;;;36.67;31.67;;;;;8.19;58.58;103104.66;5064752;28;45402;-79
2024/01/27 04:23:59;;;;;;;;;29.67;26.33;;;;;8.26;58.99;103128.22;5058516;28;45307;-78
2024/01/27 04:26:24;;;;;;;;;34.67;30.00;;;;;8.02;58.67;103085.19;5066828;28;45550;-77
2024/01/27 04:28:50;;;;;;;;;34.33;29.00;;;;;8.19;58.63;103117.91;5063850;28;45239;-78
2024/01/27 04:31:15;;;;;;;;;36.67;30.67;;;;;8.22;58.96;103125.72;5059413;28;45271;-78
2024/01/27 04:33:40;;;;;;;;;34.00;30.67;;;;;7.44;58.91;103005.72;5054150;28;46136;-79
2024/01/27 04:36:10;;;;;;;;;35.33;34.00;;;;;7.99;59.18;103098.53;5066618;28;45374;-78
2024/01/27 04:38:35;;;;;;;;;37.33;34.67;;;;;8.15;59.52;103142.81;5067228;28;45455;-76
2024/01/27 04:41:00;;;;;;;;;53.67;39.00;;;;;8.09;59.28;103148.41;5064486;28;45276;-76
2024/01/27 04:43:26;;;;;;;;;43.33;37.33;;;;;7.73;59.41;103075.88;5077407;28;45655;-77
2024/01/27 04:45:51;;;;;;;;;48.00;39.00;;;;;8.08;59.45;103141.38;5082561;28;45506;-76
2024/01/27 04:48:17;;;;;;;;;46.67;40.67;;;;;8.02;59.85;103141.69;5078839;28;44950;-78
2024/01/27 04:50:43;;;;;;;;;53.75;42.00;;;;;7.91;59.96;103133.34;5070366;28;45325;-78
2024/01/27 04:53:08;;;;;;;;;50.67;40.00;;;;;7.93;59.51;103139.41;5071555;28;46020;-80
2024/01/27 04:55:33;;;;;;;;;44.00;39.33;;;;;7.86;60.23;103133.53;5075560;28;45209;-78
2024/01/27 04:57:59;;;;;;;;;44.67;38.33;;;;;7.79;59.87;103120.63;5090291;28;44844;-78
2024/01/27 05:00:26;;;;;;;;;47.33;39.67;;;;;7.85;59.87;103136.25;5071459;28;45023;-76
2024/01/27 05:02:52;;;;;;;;;40.00;32.67;;;;;7.14;59.86;103029.94;5071042;28;45557;-77
2024/01/27 05:05:17;;;;;;;;;40.00;35.00;;;;;7.76;59.95;103140.16;5071361;28;45093;-78
2024/01/27 05:07:43;;;;;;;;;40.67;36.00;;;;;7.79;59.64;103144.47;5072033;28;45188;-74
2024/01/27 05:10:11;;;;;;;;;41.67;34.67;;;;;7.66;59.48;103125.63;5073717;28;45123;-78
2024/01/27 05:12:36;;;;;;;;;42.33;36.00;;;;;7.78;59.48;103145.38;5070112;28;47119;-78
2024/01/27 05:15:02;;;;;;;;;44.00;34.67;;;;;7.71;59.50;103141.28;5053205;28;47091;-77
2024/01/27 05:17:27;;;;;;;;;42.67;36.67;;;;;7.73;59.64;103144.72;5075495;28;44982;-79
2024/01/27 05:19:52;;;;;;;;;37.00;33.00;;;;;7.80;59.51;103156.75;5075033;28;44938;-78
2024/01/27 05:22:18;;;;;;;;;49.33;39.00;;;;;7.69;59.43;103135.22;5076238;28;45159;-77
2024/01/27 05:24:43;;;;;;;;;50.00;37.00;;;;;7.44;59.66;103091.28;5072048;28;45462;-77
2024/01/27 05:27:09;;;;;;;;;39.00;34.00;;;;;7.50;59.46;103098.94;5074799;28;45349;-79
2024/01/27 05:29:37;;;;;;;;;42.33;35.33;;;;;7.29;59.35;103060.19;5073801;28;45356;-78
2024/01/27 05:32:02;;;;;;;;;45.33;36.67;;;;;7.86;59.24;103151.22;5072364;28;45268;-78
2024/01/27 05:34:27;;;;;;;;;37.33;33.00;;;;;7.71;59.22;103128.91;5073073;28;45360;-78
2024/01/27 05:36:53;;;;;;;;;40.00;35.00;;;;;7.84;59.10;103147.78;5075325;28;45293;-78
2024/01/27 05:39:19;;;;;;;;;37.33;34.33;;;;;7.82;59.37;103150.50;5075428;28;45231;-78
2024/01/27 05:41:44;;;;;;;;;42.00;35.33;;;;;7.80;59.79;103148.81;5074627;28;45192;-78
2024/01/27 05:44:09;;;;;;;;;40.33;35.67;;;;;7.70;59.41;103136.94;5074547;28;45072;-77
2024/01/27 05:46:35;;;;;;;;;40.00;34.00;;;;;7.23;59.18;103052.50;5074505;28;45008;-78
2024/01/27 05:49:03;;;;;;;;;38.67;34.67;;;;;7.43;59.62;103094.84;5074408;28;45011;-78
2024/01/27 05:51:30;;;;;;;;;42.00;36.00;;;;;7.71;59.69;103142.16;5074217;28;45207;-77
2024/01/27 05:53:55;;;;;;;;;43.67;34.00;;;;;7.71;59.63;103146.59;5061508;28;45351;-77
2024/01/27 05:56:21;;;;;;;;;39.33;33.67;;;;;7.59;59.88;103122.34;5070949;28;45074;-77
2024/01/27 05:58:47;;;;;;;;;35.00;33.00;;;;;7.58;59.73;103110.03;5071171;28;45345;-77
2024/01/27 06:01:12;;;;;;;;;43.00;32.67;;;;;7.75;59.71;103132.28;5069248;28;46985;-76
2024/01/27 06:03:41;;;;;;;;;35.67;32.00;;;;;7.42;59.57;103079.91;5071406;28;45084;-76
2024/01/27 06:06:06;;;;;;;;;35.33;31.33;;;;;7.73;59.58;103137.66;5073584;28;45163;-77
2024/01/27 06:08:32;;;;;;;;;36.00;29.33;;;;;7.68;59.90;103125.53;5072804;28;45059;-77
2024/01/27 06:10:57;;;;;;;;;39.00;33.33;;;;;7.78;59.83;103142.75;5071484;28;45108;-77
2024/01/27 06:13:22;;;;;;;;;41.33;35.00;;;;;7.77;60.00;103133.06;5072000;28;44945;-76
2024/01/27 06:15:48;;;;;;;;;39.67;35.67;;;;;7.61;59.98;103114.38;5078875;28;45054;-78
2024/01/27 06:18:13;;;;;;;;;46.33;40.00;;;;;7.47;59.98;103095.56;5093041;28;45251;-77
2024/01/27 06:20:40;;;;;;;;;39.00;33.67;;;;;7.75;60.06;103158.75;5084899;28;45554;-79
2024/01/27 06:23:06;;;;;;;;;37.33;33.00;;;;;7.55;59.83;103120.78;5077238;28;45980;-79
2024/01/27 06:25:32;;;;;;;;;32.67;28.33;;;;;7.55;60.19;103126.06;5082252;28;45153;-78
2024/01/27 06:27:58;;;;;;;;;35.67;27.33;;;;;7.63;60.13;103145.16;5079678;28;45960;-80
2024/01/27 06:30:24;;;;;;;;;33.33;29.00;;;;;7.60;60.18;103139.97;5087739;28;45550;-76
2024/01/27 06:32:49;;;;;;;;;36.67;30.67;;;;;7.09;60.08;103073.41;5091534;28;45143;-79
2024/01/27 06:35:15;;;;;;;;;35.67;32.67;;;;;7.29;60.00;103118.38;5096107;28;44980;-81
2024/01/27 06:37:40;;;;;;;;;30.67;27.67;;;;;6.95;60.13;103050.16;5095653;28;45117;-78
2024/01/27 06:40:09;;;;;;;;;33.67;30.00;;;;;7.47;60.56;103143.22;5094369;28;45233;-77
2024/01/27 06:42:35;;;;;;;;;28.00;25.00;;;;;7.31;60.64;103132.41;5093852;28;44975;-79
2024/01/27 06:45:01;;;;;;;;;36.67;33.67;;;;;7.27;61.30;103141.41;5094617;28;45185;-79
2024/01/27 06:47:26;;;;;;;;;40.33;33.33;;;;;7.18;61.25;103137.34;5093811;28;45069;-78
2024/01/27 06:49:51;;;;;;;;;41.67;33.00;;;;;7.15;61.06;103140.13;5091843;28;45722;-78
2024/01/27 06:52:17;;;;;;;;;34.33;32.67;;;;;7.12;61.32;103134.97;5073792;28;45338;-78
2024/01/27 06:54:44;;;;;;;;;31.00;26.67;;;;;7.09;61.39;103131.59;5071908;28;44862;-77
2024/01/27 06:57:21;;;;;;;;;34.00;30.33;;;;;6.36;61.56;103030.53;5073422;28;45490;-79
2024/01/27 06:59:51;;;;;;;;;35.00;32.67;;;;;6.86;61.59;103119.31;5072499;28;45888;-79
2024/01/27 07:02:18;;;;;;;;;29.00;25.67;;;;;6.83;61.92;103117.66;5074778;28;45027;-76
2024/01/27 07:04:43;;;;;;;;;38.33;36.00;;;;;6.83;61.49;103112.34;5073922;28;45129;-78
2024/01/27 07:07:08;;;;;;;;;34.33;28.33;;;;;6.90;61.81;103134.97;5073582;28;45047;-76
2024/01/27 07:09:34;;;;;;;;;41.00;33.33;;;;;6.90;61.73;103147.34;5088635;28;46250;-78
2024/01/27 07:11:59;;;;;;;;;35.67;31.67;;;;;6.91;61.95;103133.19;5073534;28;45008;-77
2024/01/27 07:14:25;;;;;;;;;29.33;27.67;;;;;6.90;61.85;103121.75;5073515;28;45156;-79
2024/01/27 07:16:50;;;;;;;;;39.33;32.00;;;;;6.77;62.66;103120.50;5071438;28;45119;-78
2024/01/27 07:19:16;;;;;;;;;32.33;31.00;;;;;6.79;62.68;103123.97;5053038;28;45622;-80
2024/01/27 07:21:41;;;;;;;;;35.33;31.67;;;;;6.83;62.37;103130.88;5052527;28;44874;-76
2024/01/27 07:24:07;;;;;;;;;33.33;33.00;;;;;6.81;62.39;103116.84;5043483;28;44940;-79
2024/01/27 07:26:32;;;;;;;;;35.67;33.33;;;;;6.85;62.50;103134.31;5055200;28;45378;-81
2024/01/27 07:28:58;;;;;;;;;40.67;34.67;;;;;6.66;62.50;103093.66;5059003;28;45389;-79
2024/01/27 07:31:24;;;;;;;;;41.33;37.00;;;;;6.96;62.30;103142.66;5040015;28;45295;-78
2024/01/27 07:33:50;;;;;;;;;44.33;37.00;;;;;6.96;62.35;103155.88;5035652;28;45262;-78
2024/01/27 07:36:16;;;;;;;;;47.00;38.33;;;;;6.62;61.94;103092.06;5040164;28;45609;-77
2024/01/27 07:38:41;;;;;;;;;44.00;39.00;;;;;7.07;62.32;103158.09;5044374;28;45388;-79
2024/01/27 07:41:06;;;;;;;;;45.33;36.00;;;;;6.83;61.89;103107.06;5046478;28;45008;-78
2024/01/27 07:43:32;;;;;;;;;47.67;36.33;;;;;7.09;62.10;103155.41;5052947;28;45350;-77
2024/01/27 07:45:57;;;;;;;;;43.67;36.00;;;;;7.09;61.86;103165.97;5049450;28;45021;-78
2024/01/27 07:48:22;;;;;;;;;40.33;34.33;;;;;6.94;61.91;103144.50;5057655;28;45346;-78
2024/01/27 07:50:50;;;;;;;;;43.00;37.00;;;;;6.87;62.10;103148.31;5038976;28;45429;-77
2024/01/27 07:53:16;;;;;;;;;43.33;36.00;;;;;6.94;62.61;103165.66;5059454;28;45155;-76
2024/01/27 07:55:42;;;;;;;;;36.67;33.67;;;;;6.91;62.34;103155.22;5050144;28;44920;-79
2024/01/27 07:58:07;;;;;;;;;32.00;32.00;;;;;6.95;62.28;103150.66;5057555;28;45332;-78
2024/01/27 08:00:32;;;;;;;;;33.33;31.00;;;;;6.67;61.92;103112.09;5066303;28;45186;-77
2024/01/27 08:02:58;;;;;;;;;44.33;37.00;;;;;6.59;62.38;103089.53;5047452;28;45451;-77
2024/01/27 08:05:24;;;;;;;;;36.67;34.00;;;;;7.01;62.21;103156.56;5054561;28;44993;-77
2024/01/27 08:07:49;;;;;;;;;31.33;28.00;;;;;6.77;61.85;103109.94;5052717;28;45442;-79
2024/01/27 08:10:15;;;;;;;;;32.00;30.00;;;;;6.68;61.38;103090.03;5042306;28;44876;-81
2024/01/27 08:12:40;;;;;;;;;23.67;21.00;;;;;6.79;61.70;103136.31;5032019;28;44917;-78
2024/01/27 08:15:07;;;;;;;;;25.00;22.00;;;;;6.36;61.95;103083.38;5033077;28;45221;-78
2024/01/27 08:17:32;;;;;;;;;25.67;20.67;;;;;6.80;61.51;103173.28;5060410;28;45214;-78
2024/01/27 08:19:59;;;;;;;;;17.67;16.00;;;;;6.68;61.68;103144.69;5068301;28;45127;-78
2024/01/27 08:22:24;;;;;;;;;24.33;23.00;;;;;6.80;61.54;103173.28;5044470;28;45376;-78
2024/01/27 08:24:49;;;;;;;;;14.00;14.00;;;;;6.40;61.43;103113.16;5030862;28;45241;-79
2024/01/27 08:27:15;;;;;;;;;21.33;15.67;;;;;6.79;61.74;103160.97;5034660;28;45751;-78
2024/01/27 08:29:40;;;;;;;;;18.67;16.67;;;;;6.79;61.53;103163.63;5058377;28;45084;-78
2024/01/27 08:32:06;;;;;;;;;15.67;15.67;;;;;6.38;61.71;103092.09;5071723;28;45682;-77
2024/01/27 08:34:31;;;;;;;;;21.00;16.00;;;;;6.87;61.28;103163.34;5057023;28;45433;-79
2024/01/27 08:37:02;;;;;;;;;18.00;16.33;;;;;6.99;61.31;103162.81;5060593;28;45313;-79
2024/01/27 08:39:27;;;;;;;;;16.33;14.67;;;;;7.15;60.81;103163.06;5064676;28;45351;-79
2024/01/27 08:41:52;;;;;;;;;21.67;18.67;;;;;7.36;60.36;103163.97;5057218;28;45420;-78
2024/01/27 08:44:18;;;;;;;;;16.67;15.00;;;;;7.60;60.23;103149.69;5056108;28;45537;-78
2024/01/27 08:46:43;;;;;;;;;31.00;21.67;;;;;7.80;59.52;103119.69;5066436;28;46107;-77
2024/01/27 08:49:09;;;;;;;;;23.00;18.67;;;;;8.20;58.61;103138.16;5068910;28;45183;-78
2024/01/27 08:51:34;;;;;;;;;22.33;19.67;;;;;8.58;57.82;103145.31;5070750;28;45972;-78
2024/01/27 08:53:59;;;;;;;;;20.33;18.33;;;;;9.03;57.06;103158.19;5056769;28;45429;-76
2024/01/27 08:56:25;;;;;;;;;21.00;18.67;;;;;9.37;56.05;103152.88;5063659;28;45314;-77
2024/01/27 08:58:51;;;;;;;;;19.67;17.00;;;;;9.74;54.65;103153.66;5072659;28;44980;-78
2024/01/27 09:01:17;;;;;;;;;15.67;14.33;;;;;10.10;53.54;103163.31;5062233;28;45279;-77
2024/01/27 09:03:43;;;;;;;;;24.00;18.33;;;;;10.39;53.02;103153.78;5061225;28;45236;-78
2024/01/27 09:06:08;;;;;;;;;15.00;12.00;;;;;10.77;52.00;103141.88;5072231;28;45465;-81
2024/01/27 09:08:40;;;;;;;;;14.00;12.67;;;;;10.98;50.49;103105.19;5070458;28;45014;-79
2024/01/27 09:11:05;;;;;;;;;17.00;15.00;;;;;11.37;50.24;103095.81;5060458;28;45588;-76
2024/01/27 09:13:30;;;;;;;;;13.00;12.00;;;;;11.94;49.06;103133.22;5053420;28;47073;-76
2024/01/27 09:15:59;;;;;;;;;13.67;13.00;;;;;12.27;47.62;103130.28;5065765;28;46218;-76
2024/01/27 09:18:26;;;;;;;;;10.33;9.00;;;;;12.47;47.32;103096.03;5058082;28;45311;-77
2024/01/27 09:20:51;;;;;;;;;16.00;15.33;;;;;13.19;45.86;103109.97;5057170;28;45513;-77
2024/01/27 09:23:16;;;;;;;;;20.67;19.00;;;;;14.27;43.96;103131.84;5056250;28;45443;-76
2024/01/27 09:25:42;;;;;;;;;15.67;14.67;;;;;15.30;41.24;103068.84;5056060;28;46311;-79
2024/01/27 09:28:07;;;;;;;;;15.00;14.33;;;;;16.17;39.71;103109.44;5057740;28;45356;-77
2024/01/27 09:30:32;;;;;;;;;16.00;16.00;;;;;16.79;38.53;103120.47;5057874;28;45374;-77
2024/01/27 09:32:58;;;;;;;;;21.33;17.67;;;;;16.02;38.53;103082.88;5056363;28;45621;-80
2024/01/27 09:35:24;;;;;;;;;24.00;21.00;;;;;15.56;39.05;103117.75;5056448;28;46147;-77
2024/01/27 09:37:49;;;;;;;;;16.33;15.33;;;;;14.89;40.69;103096.97;5056632;28;45743;-78
2024/01/27 09:40:15;;;;;;;;;22.67;18.00;;;;;14.21;40.40;103078.75;5055922;28;45398;-80
2024/01/27 09:42:54;;;;;;;;;16.00;14.33;;;;;13.99;41.67;103119.56;5058234;28;45360;-79
2024/01/27 09:45:27;;;;;;;;;15.67;14.00;;;;;13.60;42.73;103120.53;5059573;28;45519;-80
2024/01/27 09:47:56;;;;;;;;;19.33;14.33;;;;;13.01;43.06;103095.16;5059630;28;45462;-80
2024/01/27 09:50:21;;;;;;;;;16.67;14.33;;;;;12.73;43.95;103083.66;5060158;28;45331;-80
2024/01/27 09:52:50;;;;;;;;;16.33;13.00;;;;;12.30;43.93;103104.25;5057659;28;45479;-80
2024/01/27 09:55:16;;;;;;;;;17.00;15.33;;;;;12.03;44.42;103116.66;5073537;28;45325;-78
2024/01/27 09:57:41;;;;;;;;;15.33;12.00;;;;;11.69;45.12;103105.38;5074864;28;45205;-80
2024/01/27 10:00:11;;;;;;;;;16.33;13.33;;;;;11.28;46.31;103081.25;5074502;28;45009;-77
2024/01/27 10:02:39;;;;;;;;;15.00;14.67;;;;;11.37;46.38;103127.75;5069552;28;45167;-79
2024/01/27 10:05:07;;;;;;;;;13.33;11.33;;;;;11.18;46.67;103115.53;5059085;28;46211;-77
2024/01/27 10:07:32;;;;;;;;;15.33;13.00;;;;;10.60;47.08;103025.75;5061092;28;45249;-80
2024/01/27 10:09:58;;;;;;;;;15.67;14.67;;;;;11.13;47.20;103152.22;5068879;28;45490;-79
2024/01/27 10:12:25;;;;;;;;;13.00;12.00;;;;;10.98;47.63;103153.09;5079442;28;45500;-79
2024/01/27 10:14:52;;;;;;;;;16.67;12.00;;;;;10.89;47.78;103156.28;5080527;28;45436;-78
2024/01/27 10:17:28;;;;;;;;;12.33;12.33;;;;;10.84;48.02;103153.03;5077441;28;45400;-80
2024/01/27 10:20:04;;;;;;;;;11.00;9.33;;;;;10.47;47.52;103109.88;5067383;28;45340;-78
2024/01/27 10:22:40;;;;;;;;;13.67;12.33;;;;;10.58;48.19;103122.56;5060106;28;45554;-78
2024/01/27 10:25:09;;;;;;;;;14.00;13.67;;;;;10.47;47.93;103136.47;5061675;28;45334;-82
2024/01/27 10:27:35;;;;;;;;;15.00;12.00;;;;;10.06;48.45;103089.06;5061792;28;45481;-81
2024/01/27 10:30:01;;;;;;;;;13.00;12.67;;;;;10.30;48.60;103133.88;5058502;28;45507;-80
2024/01/27 10:32:27;;;;;;;;;12.00;10.00;;;;;10.31;48.71;103156.88;5072007;28;45527;-80
2024/01/27 10:35:08;;;;;;;;;14.67;11.67;;;;;10.07;48.62;103117.34;5064599;28;45431;-78
2024/01/27 10:37:36;;;;;;;;;16.33;13.00;;;;;10.17;48.84;103154.91;5058010;28;45576;-78
2024/01/27 10:40:07;;;;;;;;;15.33;13.67;;;;;10.15;48.71;103151.47;5056839;28;45538;-80
2024/01/27 10:42:34;;;;;;;;;13.00;13.00;;;;;10.01;49.14;103127.44;5058587;28;45501;-79
2024/01/27 10:45:00;;;;;;;;;16.67;13.00;;;;;10.14;49.12;103149.75;5056750;28;46418;-82
2024/01/27 10:47:31;;;;;;;;;13.00;12.33;;;;;10.01;48.56;103125.66;5063774;28;45410;-80
2024/01/27 10:49:58;;;;;;;;;10.33;10.00;;;;;9.79;48.40;103090.53;5069960;28;45112;-80
2024/01/27 10:52:37;;;;;;;;;12.67;12.67;;;;;10.14;48.53;103138.28;5065669;28;45397;-79
2024/01/27 10:55:07;;;;;;;;;12.00;11.67;;;;;10.17;47.72;103143.41;5070009;28;46247;-78
2024/01/27 10:57:37;;;;;;;;;15.33;12.33;;;;;10.04;48.10;103112.19;5063738;28;44734;-80
2024/01/27 11:00:06;;;;;;;;;12.00;10.67;;;;;10.06;47.53;103110.31;5076875;28;45181;-78
2024/01/27 11:02:35;;;;;;;;;15.00;12.33;;;;;10.20;47.40;103116.66;5073938;28;45142;-79
2024/01/27 11:05:05;;;;;;;;;13.00;11.67;;;;;10.17;47.43;103124.81;5077409;28;45458;-76
2024/01/27 11:07:35;;;;;;;;;14.67;12.67;;;;;10.13;47.34;103123.28;5052428;28;45151;-81
2024/01/27 11:10:00;;;;;;;;;12.00;11.00;;;;;10.17;47.48;103122.16;5072433;28;45589;-80
2024/01/27 11:12:27;;;;;;;;;14.00;11.00;;;;;10.16;47.59;103109.81;5072770;28;45421;-80